createdAt,value
2024-05-09T00:02:01.030Z,1.70
2024-05-09T00:04:32.201Z,1.50
2024-05-09T00:07:03.156Z,1.65
2024-05-09T00:09:33.964Z,1.80
2024-05-09T00:12:07.832Z,1.87
2024-05-09T00:14:38.330Z,1.50
2024-05-09T00:17:08.746Z,1.70
2024-05-09T00:19:39.456Z,1.70
2024-05-09T00:22:09.813Z,1.38
2024-05-09T00:24:40.240Z,1.30
2024-05-09T00:27:13.534Z,1.65
2024-05-09T00:29:43.970Z,1.98
2024-05-09T00:32:14.225Z,1.50
2024-05-09T00:34:44.743Z,1.55
2024-05-09T00:37:15.535Z,1.60
2024-05-09T00:39:45.818Z,1.73
2024-05-09T00:42:18.676Z,1.45
2024-05-09T00:44:49.071Z,1.60
2024-05-09T00:47:19.611Z,1.70
2024-05-09T00:49:50.242Z,1.70
2024-05-09T00:52:20.594Z,1.52
2024-05-09T00:54:51.137Z,1.60
2024-05-09T00:57:24.413Z,1.50
2024-05-09T00:59:56.404Z,1.50
2024-05-09T01:02:28.783Z,1.42
2024-05-09T01:04:59.403Z,1.80
2024-05-09T01:07:29.822Z,1.88
2024-05-09T01:10:00.192Z,1.40
2024-05-09T01:12:33.268Z,2.15
2024-05-09T01:15:03.617Z,1.50
2024-05-09T01:17:35.363Z,1.50
2024-05-09T01:20:06.443Z,1.75
2024-05-09T01:22:42.701Z,1.30
2024-05-09T01:25:15.963Z,1.33
2024-05-09T01:27:46.335Z,1.60
2024-05-09T01:30:21.033Z,1.80
2024-05-09T01:32:55.113Z,1.60
2024-05-09T01:35:25.827Z,1.80
2024-05-09T01:37:56.408Z,1.40
2024-05-09T01:40:37.059Z,1.75
2024-05-09T01:43:11.416Z,1.38
2024-05-09T01:45:42.457Z,1.85
2024-05-09T01:48:13.373Z,1.20
2024-05-09T01:50:43.991Z,1.70
2024-05-09T01:53:16.731Z,1.65
2024-05-09T01:55:49.815Z,1.70
2024-05-09T01:58:20.730Z,1.50
2024-05-09T02:00:51.038Z,1.40
2024-05-09T02:03:21.566Z,1.50
2024-05-09T02:05:52.577Z,1.83
2024-05-09T02:08:24.911Z,1.60
2024-05-09T02:10:57.873Z,1.50
2024-05-09T02:13:28.419Z,1.73
2024-05-09T02:15:59.399Z,1.40
2024-05-09T02:18:29.780Z,1.60
2024-05-09T02:21:00.415Z,1.73
2024-05-09T02:23:30.926Z,1.23
2024-05-09T02:26:04.045Z,1.42
2024-05-09T02:28:34.344Z,1.50
2024-05-09T02:31:05.007Z,1.55
2024-05-09T02:33:35.783Z,1.52
2024-05-09T02:36:04.069Z,1.60
2024-05-09T02:38:34.586Z,1.60
2024-05-09T02:41:05.428Z,1.40
2024-05-09T02:43:35.753Z,1.58
2024-05-09T02:46:03.461Z,1.45
2024-05-09T02:48:33.770Z,1.70
2024-05-09T02:51:02.705Z,1.40
2024-05-09T02:53:33.310Z,1.40
2024-05-09T02:56:04.305Z,1.60
2024-05-09T02:58:34.725Z,1.30
2024-05-09T03:01:03.087Z,1.70
2024-05-09T03:03:33.820Z,1.52
2024-05-09T03:06:02.691Z,1.70
2024-05-09T03:08:33.094Z,1.30
2024-05-09T03:11:03.782Z,1.58
2024-05-09T03:13:34.098Z,1.30
2024-05-09T03:16:02.166Z,1.80
2024-05-09T03:18:32.595Z,1.60
2024-05-09T03:21:00.428Z,1.50
2024-05-09T03:23:31.007Z,1.25
2024-05-09T03:25:58.680Z,1.45
2024-05-09T03:28:31.642Z,1.73
2024-05-09T03:30:59.203Z,1.65
2024-05-09T03:33:29.727Z,1.42
2024-05-09T03:35:57.587Z,1.77
2024-05-09T03:38:28.293Z,1.70
2024-05-09T03:40:58.827Z,1.50
2024-05-09T03:43:31.721Z,1.45
2024-05-09T03:46:02.136Z,1.38
2024-05-09T03:48:29.858Z,1.60
2024-05-09T03:51:00.455Z,1.58
2024-05-09T03:53:28.230Z,1.60
2024-05-09T03:55:59.430Z,1.50
2024-05-09T03:58:29.718Z,1.50
2024-05-09T04:01:00.061Z,1.30
2024-05-09T04:03:27.937Z,1.35
2024-05-09T04:05:58.996Z,1.60
2024-05-09T04:08:26.789Z,1.70
2024-05-09T04:10:57.211Z,1.50
2024-05-09T04:13:25.033Z,1.58
2024-05-09T04:15:58.097Z,1.30
2024-05-09T04:18:25.727Z,1.42
2024-05-09T04:20:56.797Z,1.35
2024-05-09T04:23:24.659Z,1.40
2024-05-09T04:25:55.561Z,1.40
2024-05-09T04:28:24.157Z,1.58
2024-05-09T04:30:57.143Z,1.50
2024-05-09T04:33:25.331Z,1.35
2024-05-09T04:35:55.832Z,1.48
2024-05-09T04:38:23.658Z,1.55
2024-05-09T04:40:54.747Z,1.33
2024-05-09T04:43:22.526Z,1.50
2024-05-09T04:45:53.780Z,1.40
2024-05-09T04:48:24.502Z,1.60
2024-05-09T04:50:54.928Z,1.30
2024-05-09T04:53:22.738Z,1.70
2024-05-09T04:55:54.000Z,1.33
2024-05-09T04:58:21.814Z,1.75
2024-05-09T05:00:52.050Z,1.40
2024-05-09T05:03:20.007Z,1.40
2024-05-09T05:05:53.408Z,1.45
2024-05-09T05:08:21.220Z,1.40
2024-05-09T05:10:51.857Z,1.30
2024-05-09T05:13:21.148Z,1.60
2024-05-09T05:15:57.250Z,1.55
2024-05-09T05:18:27.542Z,1.50
2024-05-09T05:21:01.276Z,1.30
2024-05-09T05:23:28.980Z,1.50
2024-05-09T05:25:59.383Z,1.35
2024-05-09T05:28:27.178Z,1.42
2024-05-09T05:30:57.476Z,1.40
2024-05-09T05:33:25.332Z,1.58
2024-05-09T05:35:55.859Z,1.40
2024-05-09T05:38:28.220Z,1.30
2024-05-09T05:40:58.958Z,1.30
2024-05-09T05:43:27.612Z,1.40
2024-05-09T05:45:57.987Z,1.50
2024-05-09T05:48:25.911Z,1.63
2024-05-09T05:50:56.422Z,1.30
2024-05-09T05:53:26.806Z,1.30
2024-05-09T05:55:57.196Z,1.40
2024-05-09T05:58:24.906Z,1.50
2024-05-09T06:00:56.105Z,1.40
2024-05-09T06:03:24.245Z,1.38
2024-05-09T06:05:54.568Z,1.50
2024-05-09T06:08:22.337Z,1.52
2024-05-09T06:10:55.384Z,1.50
2024-05-09T06:13:23.161Z,1.50
2024-05-09T06:15:53.604Z,1.50
2024-05-09T06:18:21.803Z,1.50
2024-05-09T06:20:52.690Z,1.38
2024-05-09T06:23:20.420Z,1.35
2024-05-09T06:25:51.014Z,1.38
2024-05-09T06:28:21.458Z,1.48
2024-05-09T06:30:51.871Z,1.50
2024-05-09T06:33:20.064Z,1.50
2024-05-09T06:35:50.573Z,1.35
2024-05-09T06:38:18.247Z,1.60
2024-05-09T06:40:48.599Z,1.35
2024-05-09T06:43:18.641Z,1.55
2024-05-09T06:45:54.580Z,1.40
2024-05-09T06:48:23.421Z,1.27
2024-05-09T06:50:57.058Z,1.50
2024-05-09T06:53:24.871Z,1.40
2024-05-09T06:55:55.285Z,1.52
2024-05-09T06:58:23.245Z,1.30
2024-05-09T07:00:56.764Z,1.25
2024-05-09T07:03:24.707Z,1.42
2024-05-09T07:05:55.176Z,1.20
2024-05-09T07:08:22.879Z,1.25
2024-05-09T07:10:53.595Z,1.20
2024-05-09T07:13:21.257Z,1.58
2024-05-09T07:15:52.617Z,1.67
2024-05-09T07:18:23.287Z,1.70
2024-05-09T07:20:54.006Z,1.30
2024-05-09T07:23:21.675Z,1.30
2024-05-09T07:25:52.250Z,1.90
2024-05-09T07:28:21.577Z,1.65
2024-05-09T07:30:51.840Z,1.50
2024-05-09T07:33:23.918Z,1.50
2024-05-09T07:35:54.858Z,1.40
2024-05-09T07:38:22.797Z,1.42
2024-05-09T07:40:53.097Z,2.00
2024-05-09T07:43:20.837Z,1.90
2024-05-09T07:45:54.269Z,2.20
2024-05-09T07:50:00.152Z,2.00
2024-05-09T07:53:52.126Z,1.77
2024-05-09T07:56:26.054Z,1.85
2024-05-09T07:58:54.509Z,1.85
2024-05-09T08:01:26.595Z,2.10
2024-05-09T08:03:57.618Z,2.30
2024-05-09T08:06:29.057Z,2.13
2024-05-09T08:08:57.864Z,1.92
2024-05-09T08:11:29.954Z,2.13
2024-05-09T08:13:57.688Z,1.98
2024-05-09T08:16:28.119Z,2.47
2024-05-09T08:18:58.504Z,2.28
2024-05-09T08:21:29.742Z,2.58
2024-05-09T08:23:57.345Z,2.17
2024-05-09T08:26:27.664Z,2.08
2024-05-09T08:28:55.356Z,2.22
2024-05-09T08:31:25.822Z,2.15
2024-05-09T08:33:55.234Z,2.15
2024-05-09T08:36:28.291Z,2.03
2024-05-09T08:38:57.029Z,2.03
2024-05-09T08:41:28.150Z,1.88
2024-05-09T08:43:55.770Z,1.98
2024-05-09T08:46:26.998Z,2.00
2024-05-09T08:48:56.729Z,1.95
2024-05-09T08:51:29.994Z,1.65
2024-05-09T08:53:57.763Z,1.90
2024-05-09T08:56:32.781Z,1.85
2024-05-09T08:59:02.313Z,2.00
2024-05-09T09:01:37.777Z,1.70
2024-05-09T09:04:07.092Z,1.80
2024-05-09T09:06:41.665Z,1.85
2024-05-09T09:09:10.681Z,1.70
2024-05-09T09:11:41.020Z,1.77
2024-05-09T09:14:08.731Z,1.70
2024-05-09T09:16:40.169Z,1.88
2024-05-09T09:19:08.333Z,1.90
2024-05-09T09:21:41.371Z,1.95
2024-05-09T09:24:10.041Z,1.90
2024-05-09T09:26:41.201Z,1.80
2024-05-09T09:29:09.237Z,2.10
2024-05-09T09:31:39.704Z,1.95
2024-05-09T09:34:09.019Z,2.20
2024-05-09T09:36:44.218Z,1.52
2024-05-09T09:39:16.537Z,2.03
2024-05-09T09:41:50.285Z,1.90
2024-05-09T09:44:19.541Z,2.00
2024-05-09T09:46:50.369Z,1.80
2024-05-09T09:49:18.526Z,1.90
2024-05-09T09:51:52.590Z,1.90
2024-05-09T09:54:24.143Z,1.70
2024-05-09T09:56:52.360Z,1.63
2024-05-09T09:59:24.016Z,1.80
2024-05-09T10:01:51.935Z,1.85
2024-05-09T10:04:22.708Z,1.58
2024-05-09T10:06:59.533Z,1.50
2024-05-09T10:09:30.027Z,1.73
2024-05-09T10:12:00.308Z,1.50
2024-05-09T10:14:33.478Z,1.52
2024-05-09T10:17:06.060Z,1.55
2024-05-09T10:19:36.654Z,1.88
2024-05-09T10:22:08.900Z,1.73
2024-05-09T10:24:51.985Z,1.90
2024-05-09T10:27:27.492Z,1.77
2024-05-09T10:30:00.341Z,1.50
2024-05-09T10:32:29.130Z,1.83
2024-05-09T10:35:03.551Z,1.55
2024-05-09T10:37:34.451Z,1.58
2024-05-09T10:40:11.913Z,1.55
2024-05-09T10:42:45.257Z,1.50
2024-05-09T10:45:18.496Z,1.50
2024-05-09T10:47:46.251Z,1.60
2024-05-09T10:50:22.594Z,1.67
2024-05-09T10:52:58.707Z,1.60
2024-05-09T10:55:29.149Z,1.60
2024-05-09T10:57:56.967Z,1.58
2024-05-09T11:00:36.372Z,1.50
2024-05-09T11:03:05.609Z,1.60
2024-05-09T11:05:36.937Z,1.60
2024-05-09T11:08:08.551Z,1.60
2024-05-09T11:10:39.172Z,1.48
2024-05-09T11:13:06.929Z,1.60
2024-05-09T11:15:43.296Z,1.73
2024-05-09T11:18:24.646Z,1.60
2024-05-09T11:20:57.043Z,1.55
2024-05-09T11:23:30.594Z,1.60
2024-05-09T11:26:01.910Z,1.45
2024-05-09T11:28:31.082Z,1.45
2024-05-09T11:31:10.165Z,1.60
2024-05-09T11:33:39.699Z,1.58
2024-05-09T11:36:11.818Z,1.50
2024-05-09T11:38:42.342Z,1.50
2024-05-09T11:41:19.259Z,1.92
2024-05-09T11:43:49.469Z,1.50
2024-05-09T11:46:17.283Z,1.70
2024-05-09T11:48:48.375Z,1.73
2024-05-09T11:51:16.055Z,1.50
2024-05-09T11:53:49.038Z,1.52
2024-05-09T11:56:17.492Z,1.73
2024-05-09T11:58:47.830Z,1.63
2024-05-09T12:01:15.652Z,1.50
2024-05-09T12:03:46.209Z,1.83
2024-05-09T12:06:13.971Z,1.27
2024-05-09T12:08:44.655Z,1.40
2024-05-09T12:11:16.362Z,1.30
2024-05-09T12:13:46.869Z,1.50
2024-05-09T12:16:14.792Z,1.33
2024-05-09T12:18:45.186Z,1.50
2024-05-09T12:21:17.017Z,1.48
2024-05-09T12:23:47.294Z,1.50
2024-05-09T12:26:17.815Z,1.60
2024-05-09T12:28:48.103Z,1.50
2024-05-09T12:31:15.776Z,1.35
2024-05-09T12:33:46.240Z,1.50
2024-05-09T12:36:14.093Z,1.52
2024-05-09T12:38:44.328Z,1.30
2024-05-09T12:41:12.025Z,1.30
2024-05-09T12:43:45.010Z,1.50
2024-05-09T12:46:12.864Z,1.40
2024-05-09T12:48:43.322Z,1.50
2024-05-09T12:51:11.069Z,1.50
2024-05-09T12:53:42.240Z,1.50
2024-05-09T12:56:10.103Z,1.48
2024-05-09T12:58:41.081Z,1.20
2024-05-09T13:01:11.519Z,1.50
2024-05-09T13:03:43.028Z,1.48
2024-05-09T13:06:11.302Z,1.33
2024-05-09T13:08:42.144Z,1.48
2024-05-09T13:11:10.013Z,1.55
2024-05-09T13:13:40.415Z,1.30
2024-05-09T13:16:11.008Z,1.25
2024-05-09T13:18:41.457Z,1.40
2024-05-09T13:21:11.164Z,1.50
2024-05-09T13:23:41.723Z,1.50
2024-05-09T13:26:09.547Z,1.40
2024-05-09T13:28:40.070Z,1.40
2024-05-09T13:31:10.490Z,1.45
2024-05-09T13:33:41.055Z,1.42
2024-05-09T13:36:08.988Z,1.45
2024-05-09T13:38:39.504Z,1.40
2024-05-09T13:41:07.158Z,1.30
2024-05-09T13:43:37.577Z,1.48
2024-05-09T13:46:05.582Z,1.45
2024-05-09T13:48:38.824Z,1.42
2024-05-09T13:51:06.740Z,1.33
2024-05-09T13:53:37.073Z,1.38
2024-05-09T13:56:05.534Z,1.20
2024-05-09T13:58:35.866Z,1.30
2024-05-09T14:01:03.834Z,1.30
2024-05-09T14:03:34.436Z,1.10
2024-05-09T14:06:07.030Z,1.75
2024-05-09T14:08:38.539Z,1.25
2024-05-09T14:11:06.267Z,1.30
2024-05-09T14:13:36.616Z,1.30
2024-05-09T14:16:05.455Z,1.60
2024-05-09T14:18:36.353Z,1.20
2024-05-09T14:21:06.808Z,1.30
2024-05-09T14:23:37.182Z,1.50
2024-05-09T14:26:05.385Z,1.10
2024-05-09T14:28:35.995Z,1.42
2024-05-09T14:31:03.981Z,1.30
2024-05-09T14:33:34.468Z,1.48
2024-05-09T14:36:02.321Z,1.20
2024-05-09T14:38:35.295Z,1.30
2024-05-09T14:41:03.350Z,1.17
2024-05-09T14:43:33.740Z,1.20
2024-05-09T14:46:01.448Z,1.50
2024-05-09T14:48:32.259Z,1.45
2024-05-09T14:51:00.039Z,1.20
2024-05-09T14:53:30.421Z,1.30
2024-05-09T14:56:00.920Z,1.30
2024-05-09T14:58:31.356Z,1.20
2024-05-09T15:00:59.122Z,1.20
2024-05-09T15:03:29.593Z,1.23
2024-05-09T15:05:57.449Z,1.30
2024-05-09T15:08:29.055Z,1.30
2024-05-09T15:10:59.636Z,1.30
2024-05-09T15:13:30.492Z,1.40
2024-05-09T15:15:58.446Z,1.40
2024-05-09T15:18:28.947Z,1.30
2024-05-09T15:20:56.964Z,1.40
2024-05-09T15:23:27.215Z,1.20
2024-05-09T15:25:54.886Z,1.30
2024-05-09T15:28:28.128Z,1.20
2024-05-09T15:30:55.861Z,1.20
2024-05-09T15:33:27.901Z,1.33
2024-05-09T15:35:56.324Z,1.45
2024-05-09T15:38:27.682Z,1.58
2024-05-09T15:40:55.623Z,1.48
2024-05-09T15:43:29.451Z,1.38
2024-05-09T15:45:57.368Z,1.40
2024-05-09T15:48:28.036Z,1.70
2024-05-09T15:50:55.877Z,1.40
2024-05-09T15:53:26.265Z,1.50
2024-05-09T15:55:54.189Z,1.48
2024-05-09T15:58:24.762Z,1.60
2024-05-09T16:00:55.775Z,1.45
2024-05-09T16:03:26.456Z,1.55
2024-05-09T16:05:57.547Z,2.10
2024-05-09T16:08:28.115Z,1.95
2024-05-09T16:10:56.482Z,2.08
2024-05-09T16:13:28.116Z,200.20
2024-05-09T16:15:58.901Z,158.85
2024-05-09T16:18:30.120Z,156.45
2024-05-09T16:21:00.363Z,137.63
2024-05-09T16:23:31.144Z,119.55
2024-05-09T16:25:59.137Z,112.35
2024-05-09T16:28:29.586Z,100.32
2024-05-09T16:31:01.567Z,94.78
2024-05-09T16:33:32.260Z,59.65
2024-05-09T16:36:00.293Z,26.90
2024-05-09T16:38:30.607Z,16.55
2024-05-09T16:40:58.365Z,12.80
2024-05-09T16:43:29.019Z,10.18
2024-05-09T16:45:59.587Z,10.38
2024-05-09T16:48:30.278Z,8.75
2024-05-09T16:50:58.027Z,8.82
2024-05-09T16:53:28.451Z,8.07
2024-05-09T16:55:56.481Z,7.88
2024-05-09T16:58:27.284Z,7.35
2024-05-09T17:00:55.131Z,6.18
2024-05-09T17:03:28.100Z,5.75
2024-05-09T17:05:56.081Z,5.70
2024-05-09T17:08:26.723Z,5.55
2024-05-09T17:10:54.694Z,5.68
2024-05-09T17:13:25.351Z,4.68
2024-05-09T17:15:55.939Z,4.25
2024-05-09T17:18:29.110Z,4.13
2024-05-09T17:20:56.813Z,4.30
2024-05-09T17:23:28.107Z,3.40
2024-05-09T17:25:56.284Z,3.50
2024-05-09T17:28:27.446Z,2.70
2024-05-09T17:30:55.333Z,3.05
2024-05-09T17:33:29.304Z,2.55
2024-05-09T17:35:57.233Z,2.90
2024-05-09T17:38:27.762Z,2.65
2024-05-09T17:40:55.863Z,2.47
2024-05-09T17:43:26.611Z,2.20
2024-05-09T17:45:54.470Z,1.95
2024-05-09T17:48:25.171Z,2.28
2024-05-09T17:50:55.693Z,2.15
2024-05-09T17:53:26.286Z,2.47
2024-05-09T17:55:55.786Z,2.50
2024-05-09T17:58:26.273Z,2.10
2024-05-09T18:00:54.198Z,2.42
2024-05-09T18:03:25.939Z,2.40
2024-05-09T18:05:56.698Z,2.35
2024-05-09T18:08:27.313Z,2.25
2024-05-09T18:10:55.739Z,2.30
2024-05-09T18:13:26.943Z,2.47
2024-05-09T18:15:55.093Z,2.30
2024-05-09T18:18:25.790Z,2.40
2024-05-09T18:20:56.310Z,2.13
2024-05-09T18:23:26.809Z,2.10
2024-05-09T18:25:55.063Z,2.08
2024-05-09T18:28:26.072Z,1.98
2024-05-09T18:30:53.889Z,1.83
2024-05-09T18:33:24.629Z,2.10
2024-05-09T18:35:55.716Z,2.25
2024-05-09T18:38:27.099Z,1.80
2024-05-09T18:40:55.212Z,2.05
2024-05-09T18:43:31.165Z,2.17
2024-05-09T18:46:04.402Z,2.40
2024-05-09T18:48:34.960Z,2.00
2024-05-09T18:51:06.136Z,1.95
2024-05-09T18:53:37.318Z,1.85
2024-05-09T18:56:07.505Z,1.88
2024-05-09T18:58:38.334Z,1.90
2024-05-09T19:01:06.476Z,2.08
2024-05-09T19:03:36.944Z,1.80
2024-05-09T19:06:07.924Z,2.00
2024-05-09T19:08:38.444Z,1.90
2024-05-09T19:11:06.337Z,1.73
2024-05-09T19:13:37.229Z,1.90
2024-05-09T19:16:05.956Z,1.92
2024-05-09T19:18:37.070Z,2.00
2024-05-09T19:21:07.599Z,1.90
2024-05-09T19:23:41.045Z,1.80
2024-05-09T19:26:15.122Z,2.15
2024-05-09T19:28:45.514Z,2.13
2024-05-09T19:31:13.623Z,2.10
2024-05-09T19:33:44.045Z,1.80
2024-05-09T19:36:14.647Z,1.90
2024-05-09T19:38:44.939Z,1.90
2024-05-09T19:41:12.516Z,1.90
2024-05-09T19:43:43.353Z,2.03
2024-05-09T19:46:11.613Z,2.03
2024-05-09T19:48:42.493Z,2.10
2024-05-09T19:51:10.455Z,1.92
2024-05-09T19:53:43.682Z,1.88
2024-05-09T19:56:11.813Z,2.15
2024-05-09T19:58:42.336Z,2.13
2024-05-09T20:01:10.323Z,1.90
2024-05-09T20:03:41.221Z,2.05
2024-05-09T20:06:09.530Z,1.90
2024-05-09T20:08:45.413Z,1.83
2024-05-09T20:11:14.998Z,2.20
2024-05-09T20:13:45.615Z,1.70
2024-05-09T20:16:13.386Z,1.80
2024-05-09T20:18:44.213Z,1.63
2024-05-09T20:21:12.064Z,1.90
2024-05-09T20:23:45.058Z,1.85
2024-05-09T20:26:13.270Z,1.63
2024-05-09T20:28:45.056Z,1.92
2024-05-09T20:31:21.560Z,2.05
2024-05-09T20:33:52.128Z,1.90
2024-05-09T20:36:19.921Z,1.73
2024-05-09T20:38:53.075Z,2.10
2024-05-09T20:41:21.410Z,1.80
2024-05-09T20:43:52.111Z,1.95
2024-05-09T20:46:19.976Z,1.77
2024-05-09T20:48:50.893Z,1.63
2024-05-09T20:51:18.845Z,2.00
2024-05-09T20:53:53.283Z,2.00
2024-05-09T20:56:22.773Z,2.15
2024-05-09T20:58:53.286Z,1.70
2024-05-09T21:01:21.245Z,1.98
2024-05-09T21:03:52.060Z,1.88
2024-05-09T21:06:20.048Z,1.70
2024-05-09T21:08:53.059Z,2.13
2024-05-09T21:11:22.971Z,1.95
2024-05-09T21:13:54.708Z,1.90
2024-05-09T21:16:22.620Z,1.92
2024-05-09T21:18:53.099Z,1.80
2024-05-09T21:21:20.842Z,1.88
2024-05-09T21:23:54.477Z,1.80
2024-05-09T21:26:24.124Z,1.95
2024-05-09T21:28:54.515Z,1.67
2024-05-09T21:31:22.681Z,2.42
2024-05-09T21:33:53.216Z,2.00
2024-05-09T21:36:21.044Z,1.98
2024-05-09T21:38:54.687Z,2.05
2024-05-09T21:41:22.771Z,1.67
2024-05-09T21:43:53.578Z,1.83
2024-05-09T21:46:21.615Z,2.15
2024-05-09T21:48:52.522Z,1.70
2024-05-09T21:51:20.502Z,2.17
2024-05-09T21:53:54.358Z,1.67
2024-05-09T21:56:22.104Z,1.85
2024-05-09T21:58:52.559Z,1.90
2024-05-09T22:01:20.603Z,1.90
2024-05-09T22:03:51.479Z,1.80
2024-05-09T22:06:19.311Z,1.50
2024-05-09T22:08:49.895Z,1.77
2024-05-09T22:11:20.440Z,1.63
2024-05-09T22:13:50.949Z,2.00
2024-05-09T22:16:18.771Z,1.67
2024-05-09T22:18:49.561Z,1.98
2024-05-09T22:21:17.756Z,1.50
2024-05-09T22:23:48.112Z,1.63
2024-05-09T22:26:16.808Z,2.10
2024-05-09T22:28:49.718Z,1.67
2024-05-09T22:31:17.633Z,1.95
2024-05-09T22:33:48.885Z,2.15
2024-05-09T22:36:16.872Z,1.63
2024-05-09T22:38:47.350Z,1.80
2024-05-09T22:41:15.089Z,1.98
2024-05-09T22:43:45.446Z,2.35
2024-05-09T22:46:15.856Z,2.20
2024-05-09T22:48:46.798Z,2.50
2024-05-09T22:51:14.477Z,2.55
2024-05-09T22:53:44.895Z,2.70
2024-05-09T22:56:14.692Z,2.47
2024-05-09T22:58:45.112Z,2.65
2024-05-09T23:01:17.996Z,2.28
2024-05-09T23:03:48.389Z,2.20
2024-05-09T23:06:17.010Z,2.80
2024-05-09T23:08:47.555Z,2.70
2024-05-09T23:11:15.495Z,2.50
2024-05-09T23:13:45.874Z,2.53
2024-05-09T23:16:17.701Z,2.70
2024-05-09T23:18:48.025Z,2.83
2024-05-09T23:21:15.962Z,2.60
2024-05-09T23:23:46.600Z,2.80
2024-05-09T23:26:14.643Z,2.63
2024-05-09T23:28:44.984Z,3.10
2024-05-09T23:31:12.645Z,3.17
2024-05-09T23:33:51.365Z,2.95
2024-05-09T23:36:19.342Z,2.75
2024-05-09T23:38:50.024Z,3.00
2024-05-09T23:41:20.630Z,2.60
2024-05-09T23:43:48.269Z,2.65
2024-05-09T23:46:18.902Z,2.67
2024-05-09T23:48:49.567Z,2.75
2024-05-09T23:51:20.825Z,3.10
2024-05-09T23:53:51.224Z,3.00
2024-05-09T23:56:21.544Z,2.72
2024-05-09T23:58:52.403Z,2.97
